createdAt,value
2022-10-09T00:00:16.519Z,4.26
2022-10-09T00:01:16.978Z,4.27
2022-10-09T00:02:16.452Z,4.24
2022-10-09T00:03:16.960Z,4.28
2022-10-09T00:04:16.424Z,4.31
2022-10-09T00:05:16.901Z,4.30
2022-10-09T00:06:16.473Z,4.37
2022-10-09T00:07:16.935Z,4.43
2022-10-09T00:08:16.391Z,4.43
2022-10-09T00:09:16.855Z,4.43
2022-10-09T00:10:16.340Z,4.41
2022-10-09T00:11:16.794Z,4.37
2022-10-09T00:12:16.504Z,4.34
2022-10-09T00:13:16.963Z,4.36
2022-10-09T00:14:16.416Z,4.38
2022-10-09T00:15:16.848Z,4.37
2022-10-09T00:16:17.312Z,4.31
2022-10-09T00:17:16.884Z,4.33
2022-10-09T00:18:16.307Z,4.36
2022-10-09T00:19:16.728Z,4.31
2022-10-09T00:20:17.189Z,4.28
2022-10-09T00:21:16.671Z,4.28
2022-10-09T00:22:16.480Z,4.26
2022-10-09T00:23:16.963Z,4.23
2022-10-09T00:24:16.480Z,4.21
2022-10-09T00:25:16.951Z,4.19
2022-10-09T00:26:16.415Z,4.14
2022-10-09T00:27:16.917Z,4.10
2022-10-09T00:28:16.407Z,4.14
2022-10-09T00:29:16.921Z,4.14
2022-10-09T00:30:16.364Z,4.09
2022-10-09T00:31:16.862Z,4.05
2022-10-09T00:32:16.369Z,4.02
2022-10-09T00:33:16.813Z,4.02
2022-10-09T00:34:17.242Z,4.02
2022-10-09T00:35:16.725Z,3.99
2022-10-09T00:36:17.213Z,3.98
2022-10-09T00:37:16.684Z,3.98
2022-10-09T00:38:17.156Z,3.96
2022-10-09T00:39:16.623Z,3.92
2022-10-09T00:40:17.095Z,3.93
2022-10-09T00:41:16.563Z,3.89
2022-10-09T00:42:17.248Z,3.90
2022-10-09T00:43:16.689Z,3.86
2022-10-09T00:44:17.134Z,3.86
2022-10-09T00:45:16.605Z,3.88
2022-10-09T00:46:17.065Z,3.90
2022-10-09T00:47:16.604Z,3.89
2022-10-09T00:48:17.031Z,3.86
2022-10-09T00:49:16.451Z,3.86
2022-10-09T00:50:16.925Z,3.83
2022-10-09T00:51:16.420Z,3.81
2022-10-09T00:52:17.176Z,3.83
2022-10-09T00:53:16.646Z,3.86
2022-10-09T00:54:17.105Z,3.81
2022-10-09T00:55:16.597Z,3.81
2022-10-09T00:56:17.082Z,3.83
2022-10-09T00:57:16.967Z,3.83
2022-10-09T00:58:16.389Z,3.92
2022-10-09T00:59:16.876Z,3.90
2022-10-09T01:00:16.337Z,3.88
2022-10-09T01:01:16.772Z,3.92
2022-10-09T01:02:17.313Z,3.90
2022-10-09T01:03:17.325Z,3.90
2022-10-09T01:04:16.767Z,3.90
2022-10-09T01:05:17.225Z,3.90
2022-10-09T01:06:16.698Z,3.88
2022-10-09T01:07:17.169Z,3.96
2022-10-09T01:08:16.644Z,3.90
2022-10-09T01:09:17.113Z,3.93
2022-10-09T01:10:16.576Z,3.92
2022-10-09T01:11:17.068Z,3.92
2022-10-09T01:12:16.739Z,3.88
2022-10-09T01:13:17.178Z,3.86
2022-10-09T01:14:16.640Z,3.83
2022-10-09T01:15:17.075Z,3.82
2022-10-09T01:16:19.273Z,3.83
2022-10-09T01:17:16.384Z,3.81
2022-10-09T01:18:16.808Z,3.82
2022-10-09T01:19:17.243Z,3.79
2022-10-09T01:20:16.707Z,3.74
2022-10-09T01:21:17.184Z,3.74
2022-10-09T01:22:16.642Z,3.74
2022-10-09T01:23:17.125Z,3.71
2022-10-09T01:24:16.600Z,3.69
2022-10-09T01:25:17.073Z,3.72
2022-10-09T01:26:16.577Z,3.75
2022-10-09T01:27:17.022Z,3.78
2022-10-09T01:28:16.559Z,3.78
2022-10-09T01:29:17.126Z,3.79
2022-10-09T01:30:16.555Z,3.72
2022-10-09T01:31:17.087Z,3.65
2022-10-09T01:32:16.397Z,3.65
2022-10-09T01:33:16.834Z,3.67
2022-10-09T01:34:17.272Z,3.65
2022-10-09T01:35:16.753Z,3.68
2022-10-09T01:36:17.233Z,3.71
2022-10-09T01:37:16.727Z,3.74
2022-10-09T01:38:17.236Z,3.72
2022-10-09T01:39:16.696Z,3.75
2022-10-09T01:40:17.153Z,3.74
2022-10-09T01:41:16.619Z,3.77
2022-10-09T01:42:16.556Z,3.68
2022-10-09T01:43:16.992Z,3.65
2022-10-09T01:44:16.486Z,3.64
2022-10-09T01:45:16.917Z,3.62
2022-10-09T01:46:16.405Z,3.61
2022-10-09T01:47:16.929Z,3.60
2022-10-09T01:48:16.359Z,3.58
2022-10-09T01:49:16.790Z,3.57
2022-10-09T01:50:17.248Z,3.54
2022-10-09T01:51:16.715Z,3.51
2022-10-09T01:52:16.304Z,3.51
2022-10-09T01:53:16.767Z,3.51
2022-10-09T01:54:17.239Z,3.50
2022-10-09T01:55:16.714Z,3.44
2022-10-09T01:56:17.178Z,3.30
2022-10-09T01:57:16.591Z,3.33
2022-10-09T01:58:17.048Z,3.31
2022-10-09T01:59:16.493Z,3.28
2022-10-09T02:00:16.997Z,3.30
2022-10-09T02:01:16.475Z,3.30
2022-10-09T02:02:16.994Z,3.27
2022-10-09T02:03:16.673Z,3.23
2022-10-09T02:04:17.121Z,3.23
2022-10-09T02:05:16.599Z,3.13
2022-10-09T02:06:17.057Z,3.10
2022-10-09T02:07:16.534Z,3.07
2022-10-09T02:08:17.008Z,3.12
2022-10-09T02:09:16.484Z,3.13
2022-10-09T02:10:16.958Z,3.17
2022-10-09T02:11:16.441Z,3.16
2022-10-09T02:12:16.805Z,3.14
2022-10-09T02:13:17.235Z,3.12
2022-10-09T02:14:16.704Z,3.13
2022-10-09T02:15:17.146Z,3.10
2022-10-09T02:16:16.657Z,3.03
2022-10-09T02:17:17.211Z,3.00
2022-10-09T02:18:16.672Z,2.99
2022-10-09T02:19:17.149Z,2.96
2022-10-09T02:20:16.629Z,2.98
2022-10-09T02:21:17.100Z,2.99
2022-10-09T02:22:16.463Z,2.99
2022-10-09T02:23:16.926Z,2.99
2022-10-09T02:24:16.396Z,3.00
2022-10-09T02:25:16.887Z,3.03
2022-10-09T02:26:16.323Z,3.07
2022-10-09T02:27:16.752Z,3.07
2022-10-09T02:28:17.309Z,3.09
2022-10-09T02:29:16.811Z,3.06
2022-10-09T02:30:17.238Z,3.07
2022-10-09T02:31:16.720Z,3.04
2022-10-09T02:32:16.818Z,3.00
2022-10-09T02:33:17.289Z,3.03
2022-10-09T02:34:16.747Z,3.02
2022-10-09T02:35:17.214Z,2.92
2022-10-09T02:36:16.729Z,2.89
2022-10-09T02:37:17.200Z,2.89
2022-10-09T02:38:16.657Z,2.89
2022-10-09T02:39:17.137Z,2.88
2022-10-09T02:40:16.573Z,2.89
2022-10-09T02:41:17.014Z,2.88
2022-10-09T02:42:16.900Z,2.82
2022-10-09T02:43:16.339Z,2.79
2022-10-09T02:44:16.760Z,2.79
2022-10-09T02:45:17.217Z,2.82
2022-10-09T02:46:16.712Z,2.82
2022-10-09T02:47:16.295Z,2.78
2022-10-09T02:48:16.728Z,2.81
2022-10-09T02:49:17.195Z,2.76
2022-10-09T02:50:16.687Z,2.78
2022-10-09T02:51:17.140Z,2.69
2022-10-09T02:52:16.934Z,2.71
2022-10-09T02:53:16.412Z,2.69
2022-10-09T02:54:16.878Z,2.69
2022-10-09T02:55:16.367Z,2.71
2022-10-09T02:56:16.792Z,2.71
2022-10-09T02:57:17.243Z,2.72
2022-10-09T02:58:16.690Z,2.89
2022-10-09T02:59:17.116Z,2.96
2022-10-09T03:00:16.556Z,2.95
2022-10-09T03:01:16.973Z,2.92
2022-10-09T03:02:16.510Z,2.79
2022-10-09T03:03:17.261Z,2.78
2022-10-09T03:04:16.759Z,2.82
2022-10-09T03:05:17.237Z,2.86
2022-10-09T03:06:16.712Z,2.81
2022-10-09T03:07:17.192Z,2.79
2022-10-09T03:08:16.696Z,2.82
2022-10-09T03:09:17.153Z,2.89
2022-10-09T03:10:16.610Z,2.86
2022-10-09T03:11:17.035Z,2.79
2022-10-09T03:12:16.828Z,2.78
2022-10-09T03:13:17.401Z,2.75
2022-10-09T03:14:16.845Z,2.65
2022-10-09T03:15:17.286Z,2.64
2022-10-09T03:16:16.765Z,2.64
2022-10-09T03:17:16.387Z,2.64
2022-10-09T03:18:16.869Z,2.65
2022-10-09T03:19:16.343Z,2.64
2022-10-09T03:20:16.803Z,2.64
2022-10-09T03:21:17.271Z,2.61
2022-10-09T03:22:16.636Z,2.63
2022-10-09T03:23:17.104Z,2.64
2022-10-09T03:24:16.568Z,2.65
2022-10-09T03:25:17.006Z,2.69
2022-10-09T03:26:16.440Z,2.67
2022-10-09T03:27:16.879Z,2.71
2022-10-09T03:28:16.359Z,2.71
2022-10-09T03:29:16.884Z,2.88
2022-10-09T03:30:16.330Z,2.75
2022-10-09T03:31:33.289Z,2.71
2022-10-09T03:32:17.191Z,2.72
2022-10-09T03:33:16.778Z,2.74
2022-10-09T03:34:16.384Z,2.74
2022-10-09T03:35:16.871Z,2.75
2022-10-09T03:36:16.332Z,2.72
2022-10-09T03:37:16.802Z,2.74
2022-10-09T03:38:17.307Z,2.78
2022-10-09T03:39:16.772Z,2.75
2022-10-09T03:40:17.206Z,2.74
2022-10-09T03:41:16.675Z,2.72
2022-10-09T03:42:16.724Z,2.71
2022-10-09T03:43:17.147Z,2.65
2022-10-09T03:44:16.601Z,2.60
2022-10-09T03:45:17.021Z,2.60
2022-10-09T03:46:16.556Z,2.61
2022-10-09T03:47:17.127Z,2.58
2022-10-09T03:48:16.616Z,2.58
2022-10-09T03:49:17.083Z,2.57
2022-10-09T03:50:16.544Z,2.57
2022-10-09T03:51:17.002Z,2.58
2022-10-09T03:52:16.315Z,2.54
2022-10-09T03:53:16.820Z,2.54
2022-10-09T03:54:16.278Z,2.48
2022-10-09T03:55:16.725Z,2.48
2022-10-09T03:56:17.151Z,2.48
2022-10-09T03:57:16.592Z,2.45
2022-10-09T03:58:17.045Z,2.40
2022-10-09T03:59:16.470Z,2.40
2022-10-09T04:00:16.934Z,2.38
2022-10-09T04:01:16.429Z,2.40
2022-10-09T04:02:16.511Z,2.38
2022-10-09T04:03:17.047Z,2.38
2022-10-09T04:04:16.501Z,2.37
2022-10-09T04:05:16.975Z,2.34
2022-10-09T04:06:16.434Z,2.36
2022-10-09T04:07:16.899Z,2.29
2022-10-09T04:08:16.368Z,2.23
2022-10-09T04:09:16.805Z,2.19
2022-10-09T04:10:17.233Z,2.09
2022-10-09T04:11:16.681Z,2.06
2022-10-09T04:12:17.183Z,2.06
2022-10-09T04:13:16.605Z,1.95
2022-10-09T04:14:17.058Z,1.98
2022-10-09T04:15:16.487Z,2.00
2022-10-09T04:16:17.212Z,1.96
2022-10-09T04:17:16.770Z,1.95
2022-10-09T04:18:17.293Z,1.92
2022-10-09T04:19:16.771Z,1.92
2022-10-09T04:20:17.240Z,1.92
2022-10-09T04:21:16.693Z,1.93
2022-10-09T04:22:17.005Z,1.88
2022-10-09T04:23:16.456Z,1.88
2022-10-09T04:24:16.910Z,1.88
2022-10-09T04:25:16.361Z,1.86
2022-10-09T04:26:16.805Z,1.85
2022-10-09T04:27:17.247Z,1.83
2022-10-09T04:28:16.719Z,1.83
2022-10-09T04:29:17.207Z,1.88
2022-10-09T04:30:16.645Z,1.83
2022-10-09T04:31:17.105Z,1.81
2022-10-09T04:32:16.775Z,1.86
2022-10-09T04:33:17.510Z,1.92
2022-10-09T04:34:16.979Z,1.95
2022-10-09T04:35:16.481Z,2.02
2022-10-09T04:36:16.954Z,2.05
2022-10-09T04:37:16.428Z,2.00
2022-10-09T04:38:16.882Z,2.03
2022-10-09T04:39:16.339Z,2.02
2022-10-09T04:40:16.767Z,2.07
2022-10-09T04:41:17.234Z,2.17
2022-10-09T04:42:16.533Z,2.16
2022-10-09T04:43:16.953Z,2.17
2022-10-09T04:44:16.393Z,2.19
2022-10-09T04:45:16.866Z,2.17
2022-10-09T04:46:16.375Z,2.17
2022-10-09T04:47:17.051Z,2.16
2022-10-09T04:48:16.538Z,2.14
2022-10-09T04:49:16.988Z,2.13
2022-10-09T04:50:16.483Z,2.12
2022-10-09T04:51:16.937Z,2.10
2022-10-09T04:52:16.501Z,2.06
2022-10-09T04:53:16.978Z,2.05
2022-10-09T04:54:16.413Z,2.06
2022-10-09T04:55:16.878Z,2.06
2022-10-09T04:56:16.309Z,2.06
2022-10-09T04:57:16.732Z,2.12
2022-10-09T04:58:17.207Z,2.13
2022-10-09T04:59:16.647Z,2.12
2022-10-09T05:00:17.101Z,2.12
2022-10-09T05:01:16.700Z,2.09
2022-10-09T05:02:17.090Z,2.09
2022-10-09T05:03:16.678Z,2.12
2022-10-09T05:04:17.141Z,2.09
2022-10-09T05:05:16.650Z,2.14
2022-10-09T05:06:17.133Z,2.16
2022-10-09T05:07:16.601Z,2.17
2022-10-09T05:08:17.081Z,2.20
2022-10-09T05:09:16.506Z,2.20
2022-10-09T05:10:16.949Z,2.20
2022-10-09T05:11:16.364Z,2.05
2022-10-09T05:12:16.872Z,2.05
2022-10-09T05:13:16.300Z,2.10
2022-10-09T05:14:16.753Z,2.06
2022-10-09T05:15:17.205Z,2.06
2022-10-09T05:16:16.783Z,2.03
2022-10-09T05:17:18.710Z,2.02
2022-10-09T05:18:16.853Z,2.02
2022-10-09T05:19:16.322Z,2.02
2022-10-09T05:20:16.789Z,1.99
2022-10-09T05:21:17.278Z,1.95
2022-10-09T05:22:17.216Z,1.93
2022-10-09T05:23:16.673Z,1.92
2022-10-09T05:24:17.129Z,1.90
2022-10-09T05:25:16.557Z,1.85
2022-10-09T05:26:16.993Z,1.82
2022-10-09T05:27:16.428Z,1.88
2022-10-09T05:28:16.932Z,1.88
2022-10-09T05:29:16.527Z,1.82
2022-10-09T05:30:16.964Z,1.85
2022-10-09T05:31:16.465Z,1.83
2022-10-09T05:32:16.964Z,1.82
2022-10-09T05:33:16.433Z,1.79
2022-10-09T05:34:16.929Z,1.72
2022-10-09T05:35:16.424Z,1.69
2022-10-09T05:36:16.910Z,1.68
2022-10-09T05:37:16.371Z,1.69
2022-10-09T05:38:16.807Z,1.72
2022-10-09T05:39:17.287Z,1.74
2022-10-09T05:40:16.736Z,1.72
2022-10-09T05:41:17.154Z,1.71
2022-10-09T05:42:16.580Z,1.72
2022-10-09T05:43:17.055Z,1.74
2022-10-09T05:44:16.499Z,1.74
2022-10-09T05:45:16.968Z,1.78
2022-10-09T05:46:16.484Z,1.78
2022-10-09T05:47:17.140Z,1.78
2022-10-09T05:48:16.602Z,1.79
2022-10-09T05:49:17.047Z,1.77
2022-10-09T05:50:16.530Z,1.77
2022-10-09T05:51:16.978Z,1.77
2022-10-09T05:52:16.834Z,1.77
2022-10-09T05:53:17.317Z,1.77
2022-10-09T05:54:16.744Z,1.77
2022-10-09T05:55:17.166Z,1.74
2022-10-09T05:56:16.628Z,1.75
2022-10-09T05:57:17.054Z,1.83
2022-10-09T05:58:16.479Z,1.86
2022-10-09T05:59:16.963Z,1.86
2022-10-09T06:00:16.443Z,1.79
2022-10-09T06:01:16.967Z,1.81
2022-10-09T06:02:17.398Z,1.79
2022-10-09T06:03:16.933Z,1.75
2022-10-09T06:04:16.368Z,1.81
2022-10-09T06:05:16.803Z,1.78
2022-10-09T06:06:17.244Z,1.74
2022-10-09T06:07:16.722Z,1.71
2022-10-09T06:08:17.175Z,1.72
2022-10-09T06:09:16.648Z,1.77
2022-10-09T06:10:17.076Z,1.69
2022-10-09T06:11:16.503Z,1.71
2022-10-09T06:12:16.875Z,1.78
2022-10-09T06:13:16.327Z,1.77
2022-10-09T06:14:16.804Z,1.78
2022-10-09T06:15:17.274Z,1.82
2022-10-09T06:16:16.776Z,1.83
2022-10-09T06:17:16.366Z,1.83
2022-10-09T06:18:16.832Z,1.86
2022-10-09T06:19:16.339Z,1.78
2022-10-09T06:20:16.778Z,1.81
2022-10-09T06:21:17.206Z,1.82
2022-10-09T06:22:16.908Z,1.88
2022-10-09T06:23:16.335Z,1.90
2022-10-09T06:24:16.754Z,1.92
2022-10-09T06:25:17.225Z,1.93
2022-10-09T06:26:16.666Z,1.95
2022-10-09T06:27:17.153Z,1.99
2022-10-09T06:28:16.686Z,2.07
2022-10-09T06:29:17.250Z,2.03
2022-10-09T06:30:16.697Z,1.95
2022-10-09T06:31:17.233Z,1.95
2022-10-09T06:32:16.803Z,2.02
2022-10-09T06:33:17.333Z,2.05
2022-10-09T06:34:16.789Z,2.03
2022-10-09T06:35:17.221Z,2.06
2022-10-09T06:36:16.648Z,2.03
2022-10-09T06:37:17.103Z,2.06
2022-10-09T06:38:16.524Z,2.12
2022-10-09T06:39:16.987Z,2.13
2022-10-09T06:40:16.432Z,2.16
2022-10-09T06:41:16.890Z,2.17
2022-10-09T06:42:16.394Z,2.20
2022-10-09T06:43:16.851Z,2.26
2022-10-09T06:44:16.930Z,2.30
2022-10-09T06:45:16.831Z,2.32
2022-10-09T06:46:17.432Z,2.33
2022-10-09T06:47:16.998Z,2.33
2022-10-09T06:48:16.468Z,2.36
2022-10-09T06:49:16.938Z,2.36
2022-10-09T06:50:16.375Z,2.43
2022-10-09T06:51:16.817Z,2.50
2022-10-09T06:52:17.243Z,2.54
2022-10-09T06:53:16.668Z,2.58
2022-10-09T06:54:17.142Z,2.60
2022-10-09T06:55:16.637Z,2.68
2022-10-09T06:56:17.074Z,2.74
2022-10-09T06:57:16.573Z,2.75
2022-10-09T06:58:17.032Z,2.82
2022-10-09T06:59:16.521Z,2.89
2022-10-09T07:00:16.992Z,2.84
2022-10-09T07:01:16.491Z,2.92
2022-10-09T07:02:16.395Z,2.98
2022-10-09T07:03:16.917Z,3.02
2022-10-09T07:04:16.365Z,3.09
2022-10-09T07:05:16.805Z,3.14
2022-10-09T07:06:17.247Z,3.26
2022-10-09T07:07:16.676Z,3.28
2022-10-09T07:08:17.161Z,3.30
2022-10-09T07:09:16.587Z,3.36
2022-10-09T07:10:18.749Z,3.44
2022-10-09T07:11:16.401Z,3.51
2022-10-09T07:12:16.791Z,3.54
2022-10-09T07:13:17.262Z,3.54
2022-10-09T07:14:16.726Z,3.64
2022-10-09T07:15:17.203Z,3.67
2022-10-09T07:16:16.717Z,3.68
2022-10-09T07:17:17.279Z,3.71
2022-10-09T07:18:16.766Z,3.79
2022-10-09T07:19:17.191Z,3.92
2022-10-09T07:20:16.626Z,3.92
2022-10-09T07:21:17.048Z,4.00
2022-10-09T07:22:16.798Z,4.09
2022-10-09T07:23:17.474Z,4.12
2022-10-09T07:24:16.895Z,4.14
2022-10-09T07:25:16.322Z,4.34
2022-10-09T07:26:16.788Z,4.47
2022-10-09T07:27:17.258Z,4.41
2022-10-09T07:28:16.796Z,4.40
2022-10-09T07:29:16.349Z,4.44
2022-10-09T07:30:16.828Z,4.51
2022-10-09T07:31:16.340Z,4.55
2022-10-09T07:32:16.801Z,4.54
2022-10-09T07:33:17.271Z,4.60
2022-10-09T07:34:16.738Z,4.63
2022-10-09T07:35:17.219Z,4.65
2022-10-09T07:36:16.646Z,4.86
2022-10-09T07:37:17.133Z,5.09
2022-10-09T07:38:16.589Z,5.22
2022-10-09T07:39:17.041Z,5.34
2022-10-09T07:40:16.524Z,5.24
2022-10-09T07:41:16.993Z,5.24
2022-10-09T07:42:16.368Z,5.26
2022-10-09T07:43:16.825Z,5.38
2022-10-09T07:44:17.300Z,5.33
2022-10-09T07:45:16.774Z,5.33
2022-10-09T07:46:17.327Z,5.38
2022-10-09T07:47:16.975Z,5.43
2022-10-09T07:48:16.409Z,5.45
2022-10-09T07:49:16.836Z,5.52
2022-10-09T07:50:17.276Z,5.50
2022-10-09T07:51:16.719Z,5.54
2022-10-09T07:52:16.916Z,5.57
2022-10-09T07:53:16.360Z,5.62
2022-10-09T07:54:16.788Z,5.70
2022-10-09T07:55:17.257Z,5.71
2022-10-09T07:56:16.718Z,5.77
2022-10-09T07:57:17.190Z,5.89
2022-10-09T07:58:16.653Z,5.95
2022-10-09T07:59:17.114Z,6.06
2022-10-09T08:00:16.562Z,5.98
2022-10-09T08:01:20.045Z,6.02
2022-10-09T08:02:16.624Z,6.17
2022-10-09T08:03:17.195Z,6.19
2022-10-09T08:04:16.615Z,6.31
2022-10-09T08:05:17.043Z,6.43
2022-10-09T08:06:16.474Z,6.47
2022-10-09T08:07:16.926Z,6.40
2022-10-09T08:08:16.366Z,6.57
2022-10-09T08:09:16.821Z,6.78
2022-10-09T08:10:17.268Z,6.75
2022-10-09T08:11:16.785Z,6.76
2022-10-09T08:12:17.007Z,6.95
2022-10-09T08:13:16.459Z,7.20
2022-10-09T08:14:19.397Z,6.98
2022-10-09T08:15:17.149Z,6.96
2022-10-09T08:16:16.694Z,6.99
2022-10-09T08:17:16.312Z,7.07
2022-10-09T08:18:16.781Z,7.26
2022-10-09T08:19:17.196Z,7.22
2022-10-09T08:20:16.619Z,7.37
2022-10-09T08:21:17.059Z,7.47
2022-10-09T08:22:16.701Z,7.58
2022-10-09T08:23:17.176Z,7.66
2022-10-09T08:24:16.623Z,7.80
2022-10-09T08:25:17.088Z,7.88
2022-10-09T08:26:16.546Z,7.91
2022-10-09T08:27:17.032Z,7.96
2022-10-09T08:28:16.554Z,7.92
2022-10-09T08:29:17.144Z,8.13
2022-10-09T08:30:16.604Z,8.27
2022-10-09T08:31:17.191Z,8.29
2022-10-09T08:32:16.950Z,8.29
2022-10-09T08:33:16.393Z,8.27
2022-10-09T08:34:16.837Z,8.34
2022-10-09T08:35:17.265Z,9.20
2022-10-09T08:36:16.725Z,9.22
2022-10-09T08:37:17.151Z,9.27
2022-10-09T08:38:31.220Z,9.45
2022-10-09T08:39:17.182Z,9.84
2022-10-09T08:40:16.656Z,9.88
2022-10-09T08:41:17.119Z,9.98
2022-10-09T08:42:16.756Z,10.24
2022-10-09T08:43:17.243Z,10.39
2022-10-09T08:44:16.711Z,10.39
2022-10-09T08:45:17.202Z,10.47
2022-10-09T08:46:20.568Z,10.67
2022-10-09T08:47:16.536Z,10.74
2022-10-09T08:48:16.993Z,10.77
2022-10-09T08:49:16.449Z,10.81
2022-10-09T08:50:16.875Z,10.78
2022-10-09T08:51:16.309Z,10.81
2022-10-09T08:52:17.025Z,10.95
2022-10-09T08:53:16.509Z,10.75
2022-10-09T08:54:16.958Z,10.96
2022-10-09T08:55:16.435Z,11.20
2022-10-09T08:56:16.887Z,11.10
2022-10-09T08:57:16.352Z,11.26
2022-10-09T08:58:16.820Z,11.19
2022-10-09T08:59:17.279Z,11.13
2022-10-09T09:00:16.748Z,11.22
2022-10-09T09:01:17.260Z,11.37
2022-10-09T09:02:16.610Z,11.31
2022-10-09T09:03:17.124Z,11.30
2022-10-09T09:04:16.699Z,11.44
2022-10-09T09:05:17.126Z,11.55
2022-10-09T09:06:16.549Z,11.55
2022-10-09T09:07:16.999Z,11.49
2022-10-09T09:08:16.432Z,11.53
2022-10-09T09:09:16.913Z,11.55
2022-10-09T09:10:16.404Z,11.70
2022-10-09T09:11:20.714Z,11.75
2022-10-09T09:12:16.595Z,11.77
2022-10-09T09:13:17.105Z,11.82
2022-10-09T09:14:16.620Z,11.91
2022-10-09T09:15:17.068Z,11.86
2022-10-09T09:16:16.577Z,11.93
2022-10-09T09:17:17.118Z,11.95
2022-10-09T09:18:16.555Z,12.01
2022-10-09T09:19:17.001Z,12.03
2022-10-09T09:20:16.453Z,12.12
2022-10-09T09:21:16.890Z,11.89
2022-10-09T09:22:16.486Z,12.02
2022-10-09T09:23:16.938Z,12.13
2022-10-09T09:24:16.403Z,11.93
2022-10-09T09:25:16.873Z,12.09
2022-10-09T09:26:16.356Z,12.28
2022-10-09T09:27:16.858Z,12.36
2022-10-09T09:28:16.381Z,12.32
2022-10-09T09:29:16.935Z,12.39
2022-10-09T09:30:16.400Z,12.64
2022-10-09T09:31:16.886Z,12.61
2022-10-09T09:32:16.507Z,12.46
2022-10-09T09:33:16.940Z,12.58
2022-10-09T09:34:16.391Z,12.61
2022-10-09T09:35:16.868Z,12.82
2022-10-09T09:36:16.299Z,12.98
2022-10-09T09:37:16.753Z,13.15
2022-10-09T09:38:17.215Z,13.05
2022-10-09T09:40:31.189Z,12.95
2022-10-09T09:40:35.928Z,12.94
2022-10-09T09:41:16.749Z,12.98
2022-10-09T09:42:17.165Z,13.18
2022-10-09T09:43:16.622Z,13.11
2022-10-09T09:44:17.104Z,13.23
2022-10-09T09:45:16.539Z,13.34
2022-10-09T09:46:17.053Z,13.18
2022-10-09T09:47:16.605Z,13.11
2022-10-09T09:48:17.031Z,13.15
2022-10-09T09:49:16.494Z,13.18
2022-10-09T09:50:35.310Z,12.99
2022-10-09T09:51:27.813Z,13.12
2022-10-09T09:52:16.738Z,13.14
2022-10-09T09:53:17.205Z,13.14
2022-10-09T09:54:16.684Z,13.16
2022-10-09T09:55:17.130Z,12.96
2022-10-09T09:56:16.601Z,12.98
2022-10-09T09:57:19.582Z,13.29
2022-10-09T09:58:16.569Z,13.30
2022-10-09T09:59:17.036Z,13.18
2022-10-09T10:00:16.513Z,13.33
2022-10-09T10:01:17.029Z,13.42
2022-10-09T10:02:16.782Z,13.30
2022-10-09T10:03:16.394Z,13.25
2022-10-09T10:04:16.816Z,13.37
2022-10-09T10:05:17.244Z,13.33
2022-10-09T10:06:16.695Z,13.58
2022-10-09T10:07:17.133Z,13.74
2022-10-09T10:08:16.605Z,13.81
2022-10-09T10:09:17.105Z,13.81
2022-10-09T10:10:18.798Z,13.76
2022-10-09T10:11:16.721Z,13.76
2022-10-09T10:12:16.873Z,13.68
2022-10-09T10:13:16.337Z,13.67
2022-10-09T10:14:16.796Z,13.67
2022-10-09T10:15:17.234Z,13.94
2022-10-09T10:16:16.827Z,13.97
2022-10-09T10:17:16.540Z,13.91
2022-10-09T10:18:17.050Z,14.08
2022-10-09T10:19:16.494Z,13.94
2022-10-09T10:20:16.941Z,13.94
2022-10-09T10:21:16.379Z,14.04
2022-10-09T10:22:17.102Z,14.05
2022-10-09T10:23:16.531Z,14.09
2022-10-09T10:24:16.971Z,14.30
2022-10-09T10:25:16.476Z,14.26
2022-10-09T10:26:16.975Z,14.19
2022-10-09T10:27:16.456Z,14.18
2022-10-09T10:28:16.963Z,14.12
2022-10-09T10:29:16.875Z,14.12
2022-10-09T10:30:16.377Z,14.01
2022-10-09T10:31:16.876Z,14.08
2022-10-09T10:32:16.317Z,14.12
2022-10-09T10:33:16.797Z,14.07
2022-10-09T10:34:17.223Z,14.05
2022-10-09T10:35:16.648Z,14.02
2022-10-09T10:36:17.093Z,14.19
2022-10-09T10:37:16.556Z,14.16
2022-10-09T10:38:16.975Z,14.37
2022-10-09T10:39:16.469Z,14.50
2022-10-09T10:40:16.939Z,14.22
2022-10-09T10:41:16.438Z,14.13
2022-10-09T10:42:17.281Z,14.33
2022-10-09T10:43:16.833Z,14.29
2022-10-09T10:44:17.300Z,14.37
2022-10-09T10:45:16.785Z,14.30
2022-10-09T10:46:17.261Z,14.57
2022-10-09T10:47:16.826Z,14.40
2022-10-09T10:48:17.281Z,14.56
2022-10-09T10:49:16.717Z,14.81
2022-10-09T10:50:17.243Z,14.85
2022-10-09T10:51:16.810Z,14.77
2022-10-09T10:52:16.361Z,14.62
2022-10-09T10:53:16.819Z,14.62
2022-10-09T10:54:16.296Z,14.63
2022-10-09T10:55:16.750Z,14.66
2022-10-09T10:56:17.198Z,14.67
2022-10-09T10:57:16.653Z,14.90
2022-10-09T10:58:17.172Z,14.77
2022-10-09T10:59:16.736Z,14.83
2022-10-09T11:00:17.256Z,14.55
2022-10-09T11:01:16.951Z,14.73
2022-10-09T11:02:16.303Z,14.73
2022-10-09T11:03:16.814Z,14.63
2022-10-09T11:04:16.365Z,14.78
2022-10-09T11:05:16.829Z,14.77
2022-10-09T11:06:17.247Z,14.80
2022-10-09T11:07:16.680Z,15.01
2022-10-09T11:08:17.125Z,14.91
2022-10-09T11:09:16.606Z,15.02
2022-10-09T11:10:17.063Z,15.01
2022-10-09T11:11:16.531Z,14.92
2022-10-09T11:12:24.820Z,14.95
2022-10-09T11:13:16.666Z,14.78
2022-10-09T11:14:20.142Z,14.92
2022-10-09T11:15:17.018Z,14.88
2022-10-09T11:16:16.546Z,14.95
2022-10-09T11:17:17.070Z,14.92
2022-10-09T11:18:16.529Z,14.85
2022-10-09T11:19:16.955Z,14.80
2022-10-09T11:20:16.522Z,14.77
2022-10-09T11:21:17.093Z,14.76
2022-10-09T11:22:16.306Z,14.77
2022-10-09T11:23:16.782Z,14.95
2022-10-09T11:24:17.243Z,15.12
2022-10-09T11:25:16.758Z,15.35
2022-10-09T11:26:17.258Z,15.42
2022-10-09T11:27:16.728Z,15.39
2022-10-09T11:28:17.243Z,15.41
2022-10-09T11:29:16.851Z,15.47
2022-10-09T11:30:16.477Z,15.21
2022-10-09T11:31:17.133Z,15.31
2022-10-09T11:32:16.668Z,15.25
2022-10-09T11:33:17.095Z,15.19
2022-10-09T11:34:16.543Z,15.23
2022-10-09T11:35:16.971Z,15.12
2022-10-09T11:36:16.415Z,15.28
2022-10-09T11:37:16.846Z,15.23
2022-10-09T11:38:17.301Z,15.18
2022-10-09T11:39:16.974Z,15.22
2022-10-09T11:40:16.446Z,15.05
2022-10-09T11:41:16.926Z,15.23
2022-10-09T11:42:16.345Z,15.19
2022-10-09T11:43:16.841Z,15.18
2022-10-09T11:44:16.303Z,15.23
2022-10-09T11:45:16.773Z,15.19
2022-10-09T11:46:17.286Z,15.38
2022-10-09T11:47:16.807Z,15.41
2022-10-09T11:48:17.241Z,15.38
2022-10-09T11:49:16.664Z,15.56
2022-10-09T11:50:17.119Z,15.54
2022-10-09T11:51:16.546Z,15.57
2022-10-09T11:52:16.556Z,15.47
2022-10-09T11:53:17.020Z,15.49
2022-10-09T11:54:16.523Z,15.32
2022-10-09T11:55:17.007Z,15.31
2022-10-09T11:56:16.485Z,15.32
2022-10-09T11:57:16.942Z,15.29
2022-10-09T11:58:16.411Z,15.38
2022-10-09T11:59:16.876Z,15.36
2022-10-09T12:00:16.325Z,15.23
2022-10-09T12:01:16.832Z,15.45
2022-10-09T12:02:17.260Z,15.49
2022-10-09T12:03:16.804Z,15.56
2022-10-09T12:04:23.822Z,15.56
2022-10-09T12:05:17.032Z,15.36
2022-10-09T12:06:16.461Z,15.39
2022-10-09T12:07:16.913Z,15.56
2022-10-09T12:08:18.240Z,15.59
2022-10-09T12:09:16.336Z,15.56
2022-10-09T12:10:16.887Z,15.52
2022-10-09T12:11:16.357Z,15.52
2022-10-09T12:12:17.183Z,15.50
2022-10-09T12:13:16.661Z,15.54
2022-10-09T12:14:20.140Z,15.56
2022-10-09T12:15:16.749Z,15.53
2022-10-09T12:16:17.217Z,15.59
2022-10-09T12:17:16.775Z,15.50
2022-10-09T12:18:17.219Z,15.46
2022-10-09T12:19:16.667Z,15.56
2022-10-09T12:20:17.089Z,15.57
2022-10-09T12:21:16.511Z,15.57
2022-10-09T12:22:16.953Z,15.50
2022-10-09T12:23:26.558Z,15.59
2022-10-09T12:24:16.361Z,15.59
2022-10-09T12:25:16.848Z,15.62
2022-10-09T12:26:16.311Z,15.63
2022-10-09T12:27:16.764Z,15.66
2022-10-09T12:28:17.389Z,15.72
2022-10-09T12:29:16.968Z,15.78
2022-10-09T12:30:16.400Z,15.77
2022-10-09T12:31:16.923Z,15.70
2022-10-09T12:32:16.768Z,15.66
2022-10-09T12:33:17.230Z,15.60
2022-10-09T12:34:16.913Z,15.62
2022-10-09T12:35:16.340Z,15.70
2022-10-09T12:36:16.780Z,15.80
2022-10-09T12:37:17.260Z,15.69
2022-10-09T12:38:16.734Z,15.64
2022-10-09T12:39:17.213Z,15.66
2022-10-09T12:40:16.666Z,15.56
2022-10-09T12:41:20.250Z,15.62
2022-10-09T12:42:17.225Z,15.55
2022-10-09T12:43:16.795Z,15.62
2022-10-09T12:44:17.251Z,15.64
2022-10-09T12:45:16.721Z,15.70
2022-10-09T12:46:17.192Z,15.66
2022-10-09T12:47:16.829Z,15.69
2022-10-09T12:48:17.288Z,15.73
2022-10-09T12:49:16.732Z,15.76
2022-10-09T12:50:17.165Z,15.72
2022-10-09T12:51:16.630Z,15.81
2022-10-09T12:52:17.195Z,15.76
2022-10-09T12:53:16.705Z,15.70
2022-10-09T12:54:17.193Z,15.62
2022-10-09T12:55:16.677Z,15.73
2022-10-09T12:56:17.146Z,15.76
2022-10-09T12:57:16.600Z,15.81
2022-10-09T12:58:17.069Z,15.72
2022-10-09T12:59:16.536Z,15.77
2022-10-09T13:00:16.988Z,15.77
2022-10-09T13:01:16.581Z,15.77
2022-10-09T13:02:16.902Z,15.84
2022-10-09T13:03:16.659Z,15.83
2022-10-09T13:04:17.095Z,15.90
2022-10-09T13:05:16.542Z,15.90
2022-10-09T13:06:17.004Z,15.92
2022-10-09T13:07:16.476Z,15.90
2022-10-09T13:08:16.978Z,15.94
2022-10-09T13:09:16.476Z,15.88